createdAt,value
2022-11-29T00:01:07.069Z,14.73
2022-11-29T00:03:35.752Z,15.35
2022-11-29T00:06:07.697Z,14.77
2022-11-29T00:08:36.220Z,14.65
2022-11-29T00:11:07.044Z,15.20
2022-11-29T00:13:35.362Z,14.80
2022-11-29T00:16:05.022Z,15.55
2022-11-29T00:18:33.390Z,14.63
2022-11-29T00:21:06.664Z,14.80
2022-11-29T00:23:35.173Z,15.02
2022-11-29T00:26:08.395Z,15.02
2022-11-29T00:28:37.714Z,14.57
2022-11-29T00:31:15.440Z,14.25
2022-11-29T00:33:43.721Z,14.75
2022-11-29T00:36:11.970Z,15.45
2022-11-29T00:38:40.522Z,15.18
2022-11-29T00:41:10.629Z,14.77
2022-11-29T00:43:39.003Z,15.27
2022-11-29T00:46:08.991Z,14.93
2022-11-29T00:48:37.706Z,14.43
2022-11-29T00:51:06.978Z,15.23
2022-11-29T00:53:36.187Z,14.43
2022-11-29T00:56:04.958Z,15.10
2022-11-29T00:58:34.541Z,14.95
2022-11-29T01:01:02.824Z,14.57
2022-11-29T01:03:31.277Z,14.93
2022-11-29T01:06:02.851Z,14.90
2022-11-29T01:08:31.113Z,13.57
2022-11-29T01:11:06.456Z,14.32
2022-11-29T01:13:36.405Z,14.73
2022-11-29T01:16:05.479Z,14.65
2022-11-29T01:18:34.207Z,13.93
2022-11-29T01:21:04.755Z,15.20
2022-11-29T01:23:33.075Z,13.52
2022-11-29T01:26:02.792Z,14.82
2022-11-29T01:28:31.540Z,13.67
2022-11-29T01:31:01.195Z,14.07
2022-11-29T01:33:29.478Z,14.13
2022-11-29T01:35:57.694Z,13.43
2022-11-29T01:38:26.027Z,13.98
2022-11-29T01:40:59.319Z,15.20
2022-11-29T01:43:27.763Z,14.15
2022-11-29T01:45:56.143Z,14.00
2022-11-29T01:48:28.703Z,13.85
2022-11-29T01:51:00.206Z,14.77
2022-11-29T01:53:29.215Z,14.40
2022-11-29T01:56:02.173Z,15.18
2022-11-29T01:58:31.135Z,14.57
2022-11-29T02:00:59.577Z,14.77
2022-11-29T02:03:29.235Z,14.57
2022-11-29T02:05:57.523Z,14.23
2022-11-29T02:08:28.900Z,14.20
2022-11-29T02:11:13.934Z,13.80
2022-11-29T02:13:50.400Z,14.32
2022-11-29T02:16:23.783Z,15.75
2022-11-29T02:19:01.339Z,14.77
2022-11-29T02:21:37.641Z,14.25
2022-11-29T02:24:20.913Z,14.00
2022-11-29T02:27:07.282Z,14.68
2022-11-29T02:30:09.018Z,14.60
2022-11-29T02:33:18.855Z,14.57
2022-11-29T02:36:08.740Z,13.65
2022-11-29T02:38:57.242Z,14.07
2022-11-29T02:41:35.695Z,13.15
2022-11-29T02:44:30.216Z,15.00
2022-11-29T02:47:09.171Z,13.68
2022-11-29T02:49:55.249Z,14.50
2022-11-29T02:52:31.239Z,13.88
2022-11-29T02:55:06.263Z,14.35
2022-11-29T02:57:38.629Z,14.48
2022-11-29T03:00:10.560Z,14.73
2022-11-29T03:02:44.707Z,14.70
2022-11-29T03:05:20.405Z,14.43
2022-11-29T03:07:56.277Z,14.30
2022-11-29T03:10:32.201Z,14.43
2022-11-29T03:13:01.103Z,15.00
2022-11-29T03:15:31.399Z,15.15
2022-11-29T03:18:09.006Z,16.13
2022-11-29T03:20:50.564Z,16.83
2022-11-29T03:23:24.802Z,15.35
2022-11-29T03:25:57.057Z,15.90
2022-11-29T03:28:30.410Z,16.60
2022-11-29T03:31:03.269Z,16.02
2022-11-29T03:33:36.862Z,15.65
2022-11-29T03:36:11.617Z,14.98
2022-11-29T03:38:42.453Z,14.85
2022-11-29T03:41:19.917Z,14.35
2022-11-29T03:43:52.727Z,15.23
2022-11-29T03:46:26.377Z,14.07
2022-11-29T03:48:57.941Z,13.90
2022-11-29T03:51:38.943Z,13.57
2022-11-29T03:54:11.613Z,13.43
2022-11-29T03:56:41.450Z,13.05
2022-11-29T03:59:20.015Z,12.77
2022-11-29T04:02:27.087Z,13.90
2022-11-29T04:05:45.840Z,12.57
2022-11-29T04:08:49.611Z,12.57
2022-11-29T04:11:54.955Z,13.70
2022-11-29T04:14:35.927Z,14.05
2022-11-29T04:17:31.633Z,12.55
2022-11-29T04:20:39.702Z,12.88
2022-11-29T04:23:42.822Z,12.05
2022-11-29T04:29:20.028Z,11.13
2022-11-29T04:32:04.791Z,11.20
2022-11-29T04:34:47.942Z,12.48
2022-11-29T04:37:27.927Z,12.18
2022-11-29T04:40:08.785Z,12.35
2022-11-29T04:43:00.439Z,11.18
2022-11-29T04:45:42.297Z,10.80
2022-11-29T04:48:33.633Z,11.50
2022-11-29T04:51:10.205Z,11.73
2022-11-29T04:53:50.636Z,11.07
2022-11-29T04:56:24.943Z,12.32
2022-11-29T04:58:56.827Z,12.32
2022-11-29T05:01:31.207Z,11.90
2022-11-29T05:04:03.996Z,11.80
2022-11-29T05:06:36.697Z,11.70
2022-11-29T05:09:11.979Z,11.68
2022-11-29T05:11:51.574Z,11.60
2022-11-29T05:14:31.236Z,11.50
2022-11-29T05:17:10.764Z,11.07
2022-11-29T05:19:52.965Z,10.90
2022-11-29T05:22:28.924Z,10.85
2022-11-29T05:25:03.891Z,11.27
2022-11-29T05:27:41.919Z,11.73
2022-11-29T05:30:14.548Z,13.38
2022-11-29T05:32:51.839Z,14.07
2022-11-29T05:35:52.658Z,12.70
2022-11-29T05:41:16.038Z,11.48
2022-11-29T05:43:55.081Z,13.65
2022-11-29T05:46:30.590Z,13.10
2022-11-29T05:49:04.692Z,13.38
2022-11-29T05:51:41.718Z,12.80
2022-11-29T05:54:18.017Z,12.20
2022-11-29T05:56:54.561Z,11.68
2022-11-29T05:59:24.700Z,12.65
2022-11-29T06:01:59.259Z,12.82
2022-11-29T06:04:30.500Z,12.00
2022-11-29T06:07:04.426Z,11.93
2022-11-29T06:09:36.232Z,12.80
2022-11-29T06:12:06.849Z,12.52
2022-11-29T06:17:38.874Z,12.38
2022-11-29T06:20:24.696Z,12.45
2022-11-29T06:23:16.859Z,12.82
2022-11-29T06:25:59.479Z,11.57
2022-11-29T06:28:42.839Z,11.73
2022-11-29T06:31:16.364Z,12.20
2022-11-29T06:33:51.719Z,12.48
2022-11-29T06:36:22.617Z,12.75
2022-11-29T06:38:51.343Z,12.63
2022-11-29T06:41:21.937Z,12.43
2022-11-29T06:46:26.698Z,12.65
2022-11-29T06:49:02.340Z,12.50
2022-11-29T06:51:34.705Z,13.93
2022-11-29T06:54:13.816Z,13.18
2022-11-29T06:56:46.094Z,12.70
2022-11-29T06:59:27.602Z,14.65
2022-11-29T07:02:00.762Z,14.45
2022-11-29T07:04:50.670Z,12.68
2022-11-29T07:07:21.773Z,13.20
2022-11-29T07:09:52.787Z,13.35
2022-11-29T07:12:21.705Z,12.85
2022-11-29T07:14:50.638Z,12.90
2022-11-29T07:17:25.420Z,13.02
2022-11-29T07:20:03.591Z,12.48
2022-11-29T07:22:46.162Z,11.93
2022-11-29T07:25:23.011Z,11.15
2022-11-29T07:27:58.558Z,12.15
2022-11-29T07:30:29.426Z,11.75
2022-11-29T07:33:03.129Z,12.18
2022-11-29T07:35:35.631Z,12.70
2022-11-29T07:38:11.022Z,11.65
2022-11-29T07:40:44.649Z,12.60
2022-11-29T07:43:22.464Z,11.40
2022-11-29T07:45:52.121Z,12.80
2022-11-29T07:48:20.387Z,12.30
2022-11-29T07:50:50.281Z,12.20
2022-11-29T07:53:20.060Z,12.35
2022-11-29T07:55:49.198Z,12.43
2022-11-29T07:58:18.391Z,11.68
2022-11-29T08:00:47.353Z,12.02
2022-11-29T08:03:15.719Z,11.85
2022-11-29T08:05:47.161Z,11.82
2022-11-29T08:08:17.106Z,11.55
2022-11-29T08:10:45.929Z,13.00
2022-11-29T08:13:14.559Z,13.77
2022-11-29T08:15:45.555Z,12.38
2022-11-29T08:18:13.946Z,12.63
2022-11-29T08:20:42.478Z,12.13
2022-11-29T08:23:12.709Z,12.90
2022-11-29T08:25:42.672Z,13.23
2022-11-29T08:28:11.012Z,12.90
2022-11-29T08:30:39.628Z,13.07
2022-11-29T08:33:08.136Z,13.60
2022-11-29T08:35:36.854Z,12.90
2022-11-29T08:38:05.196Z,12.73
2022-11-29T08:40:33.466Z,13.65
2022-11-29T08:43:03.126Z,13.40
2022-11-29T08:45:31.507Z,14.70
2022-11-29T08:47:59.759Z,14.23
2022-11-29T08:50:27.949Z,13.95
2022-11-29T08:53:14.046Z,15.18
2022-11-29T08:55:43.076Z,13.52
2022-11-29T08:58:14.834Z,14.15
2022-11-29T09:00:45.629Z,14.52
2022-11-29T09:03:31.752Z,14.48
2022-11-29T09:06:00.049Z,14.27
2022-11-29T09:08:28.248Z,13.88
2022-11-29T09:10:56.531Z,14.25
2022-11-29T09:13:26.097Z,14.35
2022-11-29T09:15:54.312Z,13.20
2022-11-29T09:18:22.779Z,13.68
2022-11-29T09:20:51.087Z,14.15
2022-11-29T09:23:19.281Z,14.35
2022-11-29T09:25:49.498Z,12.52
2022-11-29T09:28:17.829Z,15.88
2022-11-29T09:30:47.517Z,13.70
2022-11-29T09:33:15.778Z,14.33
2022-11-29T09:35:44.160Z,13.43
2022-11-29T09:38:13.253Z,14.00
2022-11-29T09:43:22.966Z,13.25
2022-11-29T09:45:57.950Z,13.20
2022-11-29T09:48:44.600Z,13.85
2022-11-29T09:51:19.310Z,14.63
2022-11-29T09:54:04.072Z,14.82
2022-11-29T09:56:35.672Z,13.63
2022-11-29T09:59:05.745Z,14.20
2022-11-29T10:01:39.015Z,13.95
2022-11-29T10:04:12.193Z,14.68
2022-11-29T10:06:43.230Z,12.77
2022-11-29T10:09:16.701Z,14.35
2022-11-29T10:11:53.992Z,13.25
2022-11-29T10:14:24.534Z,13.65
2022-11-29T10:16:59.065Z,13.95
2022-11-29T10:19:32.648Z,14.70
2022-11-29T10:22:05.140Z,16.10
2022-11-29T10:24:34.295Z,15.40
2022-11-29T10:27:03.222Z,16.02
2022-11-29T10:29:31.517Z,16.48
2022-11-29T10:32:10.069Z,15.57
2022-11-29T10:34:38.885Z,18.13
2022-11-29T10:37:10.675Z,16.55
2022-11-29T10:39:42.432Z,17.58
2022-11-29T10:42:36.183Z,16.90
2022-11-29T10:45:06.200Z,16.38
2022-11-29T10:47:35.945Z,17.45
2022-11-29T10:50:04.220Z,16.83
2022-11-29T10:52:32.484Z,17.30
2022-11-29T10:55:01.279Z,16.63
2022-11-29T10:57:29.701Z,16.65
2022-11-29T11:00:04.521Z,16.58
2022-11-29T11:02:33.096Z,16.92
2022-11-29T11:05:02.959Z,17.25
2022-11-29T11:07:35.160Z,17.50
2022-11-29T11:10:06.439Z,17.35
2022-11-29T11:12:36.925Z,16.77
2022-11-29T11:15:17.111Z,16.80
2022-11-29T11:17:58.344Z,16.67
2022-11-29T11:20:29.799Z,16.52
2022-11-29T11:23:00.076Z,16.13
2022-11-29T11:25:30.606Z,15.93
2022-11-29T11:27:59.698Z,16.00
2022-11-29T11:30:29.280Z,15.13
2022-11-29T11:33:15.743Z,16.48
2022-11-29T11:35:45.415Z,15.90
2022-11-29T11:38:17.502Z,15.50
2022-11-29T11:40:46.588Z,14.45
2022-11-29T11:43:20.534Z,14.73
2022-11-29T11:45:53.362Z,14.68
2022-11-29T11:48:21.900Z,14.52
2022-11-29T11:50:54.330Z,14.52
2022-11-29T11:53:24.267Z,13.95
2022-11-29T11:55:59.175Z,13.23
2022-11-29T11:58:28.847Z,13.30
2022-11-29T12:01:04.373Z,13.20
2022-11-29T12:03:38.893Z,13.93
2022-11-29T12:06:27.470Z,13.90
2022-11-29T12:08:59.011Z,12.32
2022-11-29T12:11:28.104Z,11.57
2022-11-29T12:13:58.121Z,12.88
2022-11-29T12:16:30.159Z,14.50
2022-11-29T12:19:01.350Z,13.75
2022-11-29T12:21:36.015Z,14.75
2022-11-29T12:24:13.984Z,15.40
2022-11-29T12:26:57.066Z,14.77
2022-11-29T12:29:28.860Z,14.60
2022-11-29T12:34:42.388Z,13.82
2022-11-29T12:37:17.433Z,13.75
2022-11-29T12:39:58.926Z,14.75
2022-11-29T12:42:47.210Z,13.90
2022-11-29T12:45:32.206Z,14.73
2022-11-29T12:48:08.913Z,13.10
2022-11-29T12:50:43.479Z,14.82
2022-11-29T12:53:27.073Z,13.65
2022-11-29T12:56:07.154Z,14.10
2022-11-29T12:58:46.105Z,14.10
2022-11-29T13:01:21.351Z,14.80
2022-11-29T13:03:57.237Z,14.68
2022-11-29T13:06:30.644Z,17.02
2022-11-29T13:09:12.299Z,14.52
2022-11-29T13:11:43.171Z,15.10
2022-11-29T13:14:41.680Z,16.00
2022-11-29T13:17:05.042Z,15.85
2022-11-29T13:19:37.486Z,15.55
2022-11-29T13:22:12.032Z,16.52
2022-11-29T13:24:44.174Z,17.67
2022-11-29T13:27:18.188Z,16.13
2022-11-29T13:29:47.850Z,19.45
2022-11-29T13:32:30.153Z,17.85
2022-11-29T13:35:01.507Z,17.35
2022-11-29T13:37:35.002Z,17.65
2022-11-29T13:40:19.377Z,19.23
2022-11-29T13:42:51.626Z,18.85
2022-11-29T13:45:24.295Z,19.63
2022-11-29T13:47:55.029Z,19.33
2022-11-29T13:50:40.593Z,17.85
2022-11-29T13:53:15.623Z,18.77
2022-11-29T13:55:50.054Z,18.85
2022-11-29T13:58:34.408Z,18.40
2022-11-29T14:01:04.033Z,19.95
2022-11-29T14:03:36.145Z,20.90
2022-11-29T14:06:18.280Z,22.30
2022-11-29T14:09:19.983Z,21.30
2022-11-29T14:11:52.507Z,21.33
2022-11-29T14:14:26.134Z,20.52
2022-11-29T14:16:56.938Z,21.55
2022-11-29T14:19:33.160Z,20.30
2022-11-29T14:22:22.225Z,20.30
2022-11-29T14:24:58.773Z,20.30
2022-11-29T14:27:57.543Z,19.55
2022-11-29T14:30:52.444Z,18.58
2022-11-29T14:33:39.094Z,19.55
2022-11-29T14:36:40.021Z,19.85
2022-11-29T14:39:25.318Z,19.80
2022-11-29T14:42:01.284Z,20.42
2022-11-29T14:44:32.480Z,19.92
2022-11-29T14:47:03.383Z,22.83
2022-11-29T14:49:33.088Z,23.40
2022-11-29T14:52:21.494Z,24.73
2022-11-29T14:55:01.711Z,21.88
2022-11-29T14:58:15.602Z,21.48
2022-11-29T15:01:08.051Z,20.52
2022-11-29T15:03:48.150Z,21.70
2022-11-29T15:06:24.297Z,19.67
2022-11-29T15:08:57.729Z,20.63
2022-11-29T15:11:36.565Z,20.58
2022-11-29T15:14:07.872Z,22.42
2022-11-29T15:17:01.510Z,21.35
2022-11-29T15:20:11.640Z,23.15
2022-11-29T15:22:47.914Z,21.92
2022-11-29T15:25:18.695Z,23.00
2022-11-29T15:27:54.002Z,24.08
2022-11-29T15:30:29.942Z,22.88
2022-11-29T15:33:00.681Z,24.05
2022-11-29T15:35:29.240Z,25.17
2022-11-29T15:37:58.127Z,24.38
2022-11-29T15:40:33.030Z,23.55
2022-11-29T15:43:05.110Z,24.42
2022-11-29T15:45:34.906Z,24.40
2022-11-29T15:48:17.294Z,24.40
2022-11-29T15:50:50.324Z,24.23
2022-11-29T15:53:22.831Z,24.33
2022-11-29T15:55:52.285Z,25.27
2022-11-29T15:58:20.975Z,24.13
2022-11-29T16:00:51.072Z,25.48
2022-11-29T16:03:25.229Z,24.38
2022-11-29T16:05:58.790Z,23.60
2022-11-29T16:08:27.723Z,23.38
2022-11-29T16:10:56.107Z,23.60
2022-11-29T16:13:35.962Z,21.67
2022-11-29T16:16:13.263Z,22.17
2022-11-29T16:18:44.333Z,21.45
2022-11-29T16:21:26.329Z,21.38
2022-11-29T16:23:54.900Z,21.10
2022-11-29T16:26:25.117Z,21.33
2022-11-29T16:28:56.417Z,21.67
2022-11-29T16:31:31.132Z,20.75
2022-11-29T16:34:07.661Z,22.15
2022-11-29T16:36:36.430Z,20.33
2022-11-29T16:39:07.301Z,20.77
2022-11-29T16:41:36.761Z,20.85
2022-11-29T16:44:06.196Z,21.38
2022-11-29T16:46:37.534Z,22.08
2022-11-29T16:49:37.295Z,21.45
2022-11-29T16:52:24.038Z,20.50
2022-11-29T16:54:52.448Z,19.30
2022-11-29T16:57:20.771Z,20.90
2022-11-29T16:59:49.331Z,19.92
2022-11-29T17:02:17.891Z,20.88
2022-11-29T17:04:47.893Z,21.17
2022-11-29T17:07:19.202Z,19.90
2022-11-29T17:09:47.653Z,19.33
2022-11-29T17:12:16.542Z,17.65
2022-11-29T17:14:45.269Z,18.55
2022-11-29T17:17:14.942Z,19.50
2022-11-29T17:19:43.152Z,20.58
2022-11-29T17:22:13.341Z,19.50
2022-11-29T17:24:46.409Z,20.98
2022-11-29T17:27:16.204Z,19.05
2022-11-29T17:29:44.446Z,20.02
2022-11-29T17:32:12.724Z,18.90
2022-11-29T17:34:41.062Z,19.10
2022-11-29T17:37:09.266Z,18.38
2022-11-29T17:39:38.911Z,18.77
2022-11-29T17:42:07.140Z,19.70
2022-11-29T17:44:35.692Z,19.08
2022-11-29T17:47:03.930Z,20.83
2022-11-29T17:49:32.133Z,22.45
2022-11-29T17:52:00.353Z,21.95
2022-11-29T17:54:29.430Z,21.95
2022-11-29T17:56:58.994Z,20.75
2022-11-29T17:59:27.263Z,21.15
2022-11-29T18:01:55.615Z,19.27
2022-11-29T18:04:23.924Z,19.98
2022-11-29T18:06:52.346Z,20.20
2022-11-29T18:09:20.675Z,20.92
2022-11-29T18:11:50.611Z,20.08
2022-11-29T18:14:22.768Z,17.90
2022-11-29T18:16:51.461Z,19.13
2022-11-29T18:19:21.021Z,20.75
2022-11-29T18:21:49.999Z,20.85
2022-11-29T18:24:18.702Z,20.02
2022-11-29T18:26:47.143Z,20.92
2022-11-29T18:29:15.629Z,19.70
2022-11-29T18:31:46.006Z,20.65
2022-11-29T18:34:15.272Z,20.77
2022-11-29T18:36:45.109Z,20.50
2022-11-29T18:39:15.058Z,19.25
2022-11-29T18:41:44.523Z,20.55
2022-11-29T18:44:14.764Z,19.98
2022-11-29T18:46:46.222Z,21.23
2022-11-29T18:49:15.800Z,21.08
2022-11-29T18:51:45.773Z,20.48
2022-11-29T18:54:14.832Z,19.23
2022-11-29T18:56:43.736Z,19.73
2022-11-29T18:59:14.609Z,19.77
2022-11-29T19:01:43.554Z,20.15
2022-11-29T19:04:14.642Z,18.52
2022-11-29T19:06:43.905Z,19.38
2022-11-29T19:09:14.678Z,19.73
2022-11-29T19:11:43.089Z,20.05
2022-11-29T19:14:12.812Z,21.55
2022-11-29T19:16:43.315Z,22.35
2022-11-29T19:19:13.005Z,20.25
2022-11-29T19:21:41.671Z,19.63
2022-11-29T19:24:15.011Z,20.15
2022-11-29T19:26:44.741Z,20.63
2022-11-29T19:29:13.817Z,20.77
2022-11-29T19:31:42.628Z,21.52
2022-11-29T19:34:12.731Z,20.85
2022-11-29T19:36:43.302Z,21.27
2022-11-29T19:39:13.551Z,20.30
2022-11-29T19:41:42.840Z,19.63
2022-11-29T19:44:11.767Z,19.65
2022-11-29T19:46:41.903Z,20.90
2022-11-29T19:49:11.081Z,19.92
2022-11-29T19:51:40.645Z,20.35
2022-11-29T19:54:10.381Z,20.83
2022-11-29T19:56:39.279Z,20.70
2022-11-29T19:59:08.604Z,21.17
2022-11-29T20:01:41.289Z,21.17
2022-11-29T20:04:11.448Z,20.75
2022-11-29T20:06:41.736Z,22.15
2022-11-29T20:09:10.627Z,20.35
2022-11-29T20:11:38.902Z,21.08
2022-11-29T20:14:08.148Z,20.65
2022-11-29T20:16:38.066Z,22.40
2022-11-29T20:19:09.967Z,20.70
2022-11-29T20:21:43.968Z,22.20
2022-11-29T20:24:14.213Z,20.83
2022-11-29T20:26:43.951Z,21.88
2022-11-29T20:29:13.277Z,21.45
2022-11-29T20:31:49.031Z,20.15
2022-11-29T20:34:18.885Z,20.92
2022-11-29T20:37:06.727Z,21.15
2022-11-29T20:39:40.069Z,21.73
2022-11-29T20:42:34.416Z,21.42
2022-11-29T20:45:04.938Z,22.95
2022-11-29T20:47:35.594Z,23.10
2022-11-29T20:52:39.271Z,22.88
2022-11-29T20:55:08.209Z,22.55
2022-11-29T20:57:38.255Z,22.00
2022-11-29T21:00:08.177Z,23.95
2022-11-29T21:02:36.439Z,24.67
2022-11-29T21:05:05.469Z,24.48
2022-11-29T21:07:35.181Z,23.67
2022-11-29T21:10:03.531Z,25.97
2022-11-29T21:12:32.681Z,24.58
2022-11-29T21:15:01.416Z,25.73
2022-11-29T21:17:33.679Z,24.77
2022-11-29T21:20:03.152Z,24.75
2022-11-29T21:22:39.883Z,26.58
2022-11-29T21:25:15.302Z,26.08
2022-11-29T21:27:44.254Z,28.38
2022-11-29T21:30:18.679Z,22.88
2022-11-29T21:32:47.983Z,22.73
2022-11-29T21:35:16.970Z,23.38
2022-11-29T21:37:46.865Z,22.42
2022-11-29T21:40:16.968Z,22.33
2022-11-29T21:42:45.299Z,23.58
2022-11-29T21:45:15.802Z,22.80
2022-11-29T21:47:44.679Z,21.65
2022-11-29T21:50:13.663Z,22.20
2022-11-29T21:52:41.973Z,23.02
2022-11-29T21:55:13.721Z,23.00
2022-11-29T21:57:41.948Z,25.75
2022-11-29T22:00:10.912Z,23.80
2022-11-29T22:02:39.366Z,23.77
2022-11-29T22:05:09.602Z,23.67
2022-11-29T22:07:37.925Z,21.35
2022-11-29T22:10:13.098Z,22.38
2022-11-29T22:12:51.987Z,22.23
2022-11-29T22:15:24.802Z,21.80
2022-11-29T22:17:53.445Z,23.90
2022-11-29T22:20:21.705Z,22.50
2022-11-29T22:22:50.138Z,22.10
2022-11-29T22:25:19.610Z,21.40
2022-11-29T22:27:51.571Z,23.27
2022-11-29T22:30:20.032Z,22.63
2022-11-29T22:32:48.287Z,23.30
2022-11-29T22:35:16.799Z,20.90
2022-11-29T22:37:45.144Z,21.08
2022-11-29T22:40:13.912Z,22.17
2022-11-29T22:42:43.276Z,21.77
2022-11-29T22:45:13.103Z,22.42
2022-11-29T22:47:41.346Z,23.48
2022-11-29T22:50:11.118Z,23.33
2022-11-29T22:52:39.371Z,21.77
2022-11-29T22:55:08.138Z,22.52
2022-11-29T22:57:36.534Z,22.15
2022-11-29T23:00:06.170Z,21.83
2022-11-29T23:02:35.809Z,22.17
2022-11-29T23:05:04.116Z,20.77
2022-11-29T23:07:32.431Z,22.35
2022-11-29T23:10:00.697Z,21.60
2022-11-29T23:12:29.159Z,23.33
2022-11-29T23:14:57.728Z,21.85
2022-11-29T23:17:26.142Z,21.52
2022-11-29T23:19:55.712Z,22.92
2022-11-29T23:22:23.911Z,22.67
2022-11-29T23:24:52.100Z,24.67
2022-11-29T23:27:20.430Z,21.98
2022-11-29T23:29:48.736Z,20.88
2022-11-29T23:32:16.958Z,23.60
2022-11-29T23:34:45.618Z,21.98
2022-11-29T23:37:15.303Z,23.63
2022-11-29T23:39:43.519Z,24.90
2022-11-29T23:42:11.766Z,22.80
2022-11-29T23:44:39.975Z,23.00
2022-11-29T23:47:08.190Z,24.67
2022-11-29T23:49:39.866Z,22.63
2022-11-29T23:52:08.190Z,22.67
2022-11-29T23:54:37.765Z,23.05
2022-11-29T23:57:06.076Z,23.27
2022-11-29T23:59:34.350Z,22.73
